Time;durP1;ratioP1;P1;durP2;ratioP2;P2;SDS_P1;SDS_P2;PMS_P1;PMS_P2;Temp;Humidity;BMP_temperature;BMP_pressure;BME280_temperature;BME280_humidity;BME280_pressure;Samples;Min_cycle;Max_cycle;Signal;HPM_P1;HPM_P2
2021/10/31 00:01:18;;;;;;;8.88;6.18;;;11.40;99.90;;;;;;5050068;28;20136;-78
2021/10/31 00:03:45;;;;;;;11.23;6.63;;;11.40;99.90;;;;;;5049717;28;20526;-79
2021/10/31 00:06:12;;;;;;;9.70;6.45;;;11.40;99.90;;;;;;5049611;28;20131;-75
2021/10/31 00:08:40;;;;;;;12.15;7.80;;;11.40;99.90;;;;;;5049773;28;20163;-76
2021/10/31 00:11:08;;;;;;;12.68;8.35;;;11.40;99.90;;;;;;5049402;28;20760;-79
2021/10/31 00:13:36;;;;;;;10.07;7.18;;;11.30;99.90;;;;;;5049540;28;20445;-78
2021/10/31 00:16:03;;;;;;;9.75;6.35;;;11.30;99.90;;;;;;5049562;28;20049;-78
2021/10/31 00:18:30;;;;;;;10.73;7.30;;;11.20;99.90;;;;;;5048779;28;20140;-76
2021/10/31 00:20:57;;;;;;;10.38;6.03;;;11.20;99.90;;;;;;5049209;28;20045;-79
2021/10/31 00:23:25;;;;;;;10.77;7.18;;;11.20;99.90;;;;;;5048420;28;20135;-77
2021/10/31 00:25:53;;;;;;;11.10;7.57;;;11.10;99.90;;;;;;5049125;28;20053;-77
2021/10/31 00:28:21;;;;;;;11.35;7.60;;;11.10;99.90;;;;;;5049164;28;20084;-79
2021/10/31 00:30:49;;;;;;;13.38;8.57;;;11.10;99.90;;;;;;5048810;28;20053;-79
2021/10/31 00:33:16;;;;;;;13.10;8.63;;;11.10;99.90;;;;;;5048310;28;20465;-79
2021/10/31 00:35:43;;;;;;;13.18;8.90;;;11.00;99.90;;;;;;5049055;28;20049;-77
2021/10/31 00:38:10;;;;;;;14.93;9.32;;;11.00;99.90;;;;;;5048621;28;20112;-77
2021/10/31 00:40:37;;;;;;;15.98;10.38;;;10.90;99.90;;;;;;5048621;28;20135;-79
2021/10/31 00:43:04;;;;;;;15.27;10.35;;;11.00;99.90;;;;;;5048581;28;20580;-80
2021/10/31 00:45:33;;;;;;;14.43;10.30;;;10.90;99.90;;;;;;5048725;28;20396;-76
2021/10/31 00:48:00;;;;;;;14.48;10.70;;;10.90;99.90;;;;;;5048748;28;20136;-80
2021/10/31 00:50:27;;;;;;;15.85;11.20;;;10.90;99.90;;;;;;5048634;28;20096;-77
2021/10/31 00:52:55;;;;;;;16.58;10.75;;;10.90;99.90;;;;;;5047954;28;20084;-78
2021/10/31 00:55:22;;;;;;;15.77;10.13;;;10.80;99.90;;;;;;5049270;28;20041;-80
2021/10/31 00:57:49;;;;;;;12.40;9.15;;;10.80;99.90;;;;;;5048005;28;20041;-78
2021/10/31 01:00:17;;;;;;;15.35;10.68;;;10.80;99.90;;;;;;5049167;28;20299;-76
2021/10/31 01:02:45;;;;;;;13.23;9.45;;;10.70;99.90;;;;;;5049171;28;20057;-78
2021/10/31 01:05:18;;;;;;;13.13;9.13;;;10.70;99.90;;;;;;5049204;28;20136;-78
2021/10/31 01:08:14;;;;;;;12.35;8.27;;;10.70;99.90;;;;;;5052097;28;20045;-79
2021/10/31 01:10:59;;;;;;;11.07;7.70;;;10.60;99.90;;;;;;5057887;28;20056;-76
2021/10/31 01:14:04;;;;;;;10.85;7.90;;;10.60;99.90;;;;;;5069077;28;20387;-76
2021/10/31 01:16:46;;;;;;;11.43;8.10;;;10.60;99.90;;;;;;5064564;28;20041;-75
2021/10/31 01:19:40;;;;;;;12.32;8.30;;;10.50;99.90;;;;;;5049200;28;20132;-79
2021/10/31 01:22:31;;;;;;;13.33;8.90;;;10.50;99.90;;;;;;5048840;28;20060;-76
2021/10/31 01:25:22;;;;;;;13.88;9.38;;;10.50;99.90;;;;;;5048609;28;20377;-77
2021/10/31 01:28:09;;;;;;;14.27;9.77;;;10.40;99.90;;;;;;5048745;28;20131;-77
2021/10/31 01:30:49;;;;;;;14.02;9.57;;;10.40;99.90;;;;;;5048818;28;20107;-78
2021/10/31 01:33:30;;;;;;;15.18;9.80;;;10.40;99.90;;;;;;5048316;28;20041;-79
2021/10/31 01:36:06;;;;;;;15.27;9.07;;;10.30;99.90;;;;;;5048244;28;20136;-80
2021/10/31 01:38:45;;;;;;;17.30;10.60;;;10.30;99.90;;;;;;5048958;28;20135;-77
2021/10/31 01:41:17;;;;;;;15.10;10.68;;;10.20;99.90;;;;;;5048233;28;20048;-77
2021/10/31 01:43:55;;;;;;;13.15;8.90;;;10.10;99.90;;;;;;5048056;28;20590;-76
2021/10/31 01:46:35;;;;;;;12.30;8.70;;;10.10;99.90;;;;;;5048378;28;20525;-78
2021/10/31 01:49:11;;;;;;;12.65;8.60;;;10.10;99.90;;;;;;5048259;28;20144;-78
2021/10/31 01:51:46;;;;;;;11.15;7.95;;;10.10;99.90;;;;;;5046742;28;20144;-78
2021/10/31 01:54:20;;;;;;;11.23;7.60;;;10.10;99.90;;;;;;5028598;28;20128;-76
2021/10/31 01:56:54;;;;;;;12.80;8.65;;;10.20;99.90;;;;;;5041654;28;20162;-78
2021/10/31 01:59:27;;;;;;;10.88;8.02;;;10.20;99.90;;;;;;5048405;28;20076;-79
2021/10/31 02:01:57;;;;;;;10.88;7.78;;;10.20;99.90;;;;;;5048517;28;20080;-78
2021/10/31 02:04:27;;;;;;;13.30;8.80;;;10.30;99.90;;;;;;5048422;28;20267;-78
2021/10/31 02:06:57;;;;;;;11.95;8.10;;;10.30;99.90;;;;;;5047615;28;20163;-77
2021/10/31 02:09:30;;;;;;;11.18;8.00;;;10.30;99.90;;;;;;5047549;28;20087;-77
2021/10/31 02:11:58;;;;;;;11.27;8.00;;;10.30;99.90;;;;;;5047563;28;20103;-78
2021/10/31 02:14:26;;;;;;;11.60;7.70;;;10.30;99.90;;;;;;5047786;28;20049;-78
2021/10/31 02:16:56;;;;;;;13.18;7.68;;;10.20;99.90;;;;;;5048253;28;20511;-79
2021/10/31 02:19:28;;;;;;;11.68;8.05;;;10.20;99.90;;;;;;5047870;28;20053;-80
2021/10/31 02:22:02;;;;;;;11.75;7.75;;;10.20;99.90;;;;;;5047276;28;20502;-76
2021/10/31 02:24:31;;;;;;;11.33;7.47;;;10.10;99.90;;;;;;5047233;28;20132;-78
2021/10/31 02:26:59;;;;;;;9.95;7.35;;;10.10;99.90;;;;;;5047320;28;20391;-78
2021/10/31 02:29:26;;;;;;;11.43;7.30;;;10.00;99.90;;;;;;5049104;28;20048;-79
2021/10/31 02:31:53;;;;;;;11.20;7.82;;;10.00;99.90;;;;;;5051504;28;20085;-77
2021/10/31 02:34:20;;;;;;;11.60;7.78;;;9.90;99.90;;;;;;5051399;28;20132;-77
2021/10/31 02:36:47;;;;;;;10.68;7.47;;;9.90;99.90;;;;;;5051362;28;20778;-79
2021/10/31 02:39:14;;;;;;;12.15;7.72;;;9.80;99.90;;;;;;5037313;28;20084;-77
2021/10/31 02:41:42;;;;;;;9.25;6.43;;;9.80;99.90;;;;;;5050809;28;20141;-78
2021/10/31 02:44:09;;;;;;;9.80;6.60;;;9.80;99.90;;;;;;5050888;28;20467;-79
2021/10/31 02:46:37;;;;;;;11.05;7.00;;;9.80;99.90;;;;;;5050835;28;20172;-77
2021/10/31 02:49:06;;;;;;;10.60;6.97;;;9.80;99.90;;;;;;5050981;28;20323;-78
2021/10/31 02:51:45;;;;;;;12.45;6.95;;;9.80;99.90;;;;;;5052031;28;20151;-79
2021/10/31 02:54:23;;;;;;;10.88;7.40;;;9.80;99.90;;;;;;5054666;28;20127;-79
2021/10/31 02:57:01;;;;;;;9.65;6.38;;;9.80;99.90;;;;;;5054486;28;20083;-80
2021/10/31 02:59:44;;;;;;;9.93;6.60;;;9.80;99.90;;;;;;5054761;28;20060;-79
2021/10/31 03:02:13;;;;;;;9.10;6.22;;;9.70;99.90;;;;;;5054457;28;20602;-76
2021/10/31 03:04:40;;;;;;;7.80;5.65;;;9.70;99.90;;;;;;5054152;28;20132;-78
2021/10/31 03:07:08;;;;;;;8.13;5.90;;;9.70;99.90;;;;;;5054162;28;20076;-78
2021/10/31 03:09:35;;;;;;;8.05;5.55;;;9.60;99.90;;;;;;5054255;28;20599;-79
2021/10/31 03:12:06;;;;;;;9.30;6.00;;;9.60;99.90;;;;;;5054258;28;20056;-79
2021/10/31 03:14:34;;;;;;;7.80;5.40;;;9.60;99.90;;;;;;5054478;28;20069;-77
2021/10/31 03:17:01;;;;;;;9.88;6.68;;;9.50;99.90;;;;;;5053987;28;20561;-79
2021/10/31 03:19:28;;;;;;;10.07;7.10;;;9.50;99.90;;;;;;5054477;28;20128;-76
2021/10/31 03:21:56;;;;;;;9.13;6.35;;;9.40;99.90;;;;;;5054147;28;20560;-77
2021/10/31 03:24:23;;;;;;;10.80;6.75;;;9.20;99.90;;;;;;5054338;28;20558;-77
2021/10/31 03:26:50;;;;;;;12.80;7.53;;;9.20;99.90;;;;;;5053990;28;20099;-78
2021/10/31 03:29:21;;;;;;;12.93;8.20;;;9.10;99.90;;;;;;5054059;28;20144;-78
2021/10/31 03:31:49;;;;;;;12.85;9.00;;;9.00;99.90;;;;;;5054148;28;20084;-76
2021/10/31 03:34:16;;;;;;;12.27;8.85;;;9.00;99.90;;;;;;5054201;28;20094;-78
2021/10/31 03:36:43;;;;;;;13.18;8.70;;;8.90;99.90;;;;;;5053863;28;20080;-76
2021/10/31 03:39:10;;;;;;;15.40;10.25;;;9.00;99.90;;;;;;5053432;28;20120;-78
2021/10/31 03:41:38;;;;;;;14.02;9.48;;;9.00;99.90;;;;;;5053878;28;20088;-78
2021/10/31 03:44:06;;;;;;;12.75;9.73;;;9.00;99.90;;;;;;5053457;28;20087;-79
2021/10/31 03:46:34;;;;;;;12.73;8.75;;;9.00;99.90;;;;;;5053714;28;20049;-79
2021/10/31 03:49:01;;;;;;;14.43;8.75;;;9.10;99.90;;;;;;5054119;28;20099;-78
2021/10/31 03:51:28;;;;;;;12.73;8.73;;;9.10;99.90;;;;;;5053140;28;20132;-79
2021/10/31 03:53:55;;;;;;;14.80;8.52;;;9.10;99.90;;;;;;5046326;28;20088;-77
2021/10/31 03:56:22;;;;;;;10.55;7.70;;;9.20;99.90;;;;;;5053692;28;20120;-77
2021/10/31 03:58:49;;;;;;;12.07;7.45;;;9.20;99.90;;;;;;5053332;28;20479;-79
2021/10/31 04:01:17;;;;;;;11.07;7.10;;;9.20;99.90;;;;;;5052539;28;20127;-80
2021/10/31 04:03:45;;;;;;;10.32;6.97;;;9.20;99.90;;;;;;5050079;28;20525;-77
2021/10/31 04:06:13;;;;;;;9.68;7.03;;;9.30;99.90;;;;;;5050482;28;20044;-79
2021/10/31 04:08:41;;;;;;;9.38;6.88;;;9.30;99.90;;;;;;5048702;28;20064;-78
2021/10/31 04:11:08;;;;;;;10.05;6.35;;;9.30;99.90;;;;;;5049743;28;20068;-78
2021/10/31 04:13:35;;;;;;;10.73;7.05;;;9.20;99.90;;;;;;5049622;28;20151;-79
2021/10/31 04:16:03;;;;;;;10.68;7.10;;;9.20;99.90;;;;;;5049725;28;20132;-78
2021/10/31 04:18:30;;;;;;;10.35;7.00;;;9.20;99.90;;;;;;5049561;28;20073;-78
2021/10/31 04:20:58;;;;;;;11.35;6.70;;;9.20;99.90;;;;;;5049685;28;20100;-78
2021/10/31 04:23:26;;;;;;;9.50;6.90;;;9.10;99.90;;;;;;5049382;28;20136;-78
2021/10/31 04:25:53;;;;;;;10.15;6.70;;;9.10;99.90;;;;;;5050655;28;20056;-76
2021/10/31 04:28:20;;;;;;;10.27;6.43;;;9.00;99.90;;;;;;5050324;28;20132;-81
2021/10/31 04:30:47;;;;;;;11.02;6.68;;;9.00;99.90;;;;;;5062258;28;20139;-77
2021/10/31 04:33:15;;;;;;;9.95;6.75;;;9.00;99.90;;;;;;5069594;28;20131;-77
2021/10/31 04:35:42;;;;;;;12.68;8.32;;;9.00;99.90;;;;;;5063967;28;20091;-78
2021/10/31 04:38:13;;;;;;;14.50;9.07;;;9.00;99.90;;;;;;5049259;28;20128;-77
2021/10/31 04:40:41;;;;;;;14.50;9.05;;;8.90;99.90;;;;;;5049314;28;20041;-79
2021/10/31 04:43:11;;;;;;;11.88;8.27;;;8.80;99.90;;;;;;5049428;28;20057;-79
2021/10/31 04:45:40;;;;;;;11.45;8.07;;;8.70;99.90;;;;;;5049627;28;20053;-79
2021/10/31 04:48:07;;;;;;;11.52;8.18;;;8.70;99.90;;;;;;5049314;28;20143;-79
2021/10/31 04:50:35;;;;;;;13.20;8.85;;;8.60;99.90;;;;;;5048887;28;20052;-78
2021/10/31 04:53:06;;;;;;;12.27;8.75;;;8.60;99.90;;;;;;5048290;28;20136;-76
2021/10/31 04:55:35;;;;;;;12.15;8.68;;;8.60;99.90;;;;;;5049326;28;20044;-79
2021/10/31 04:58:02;;;;;;;12.38;8.65;;;8.60;99.90;;;;;;5049132;28;20132;-78
2021/10/31 05:00:29;;;;;;;13.18;9.32;;;8.50;99.90;;;;;;5049370;28;20616;-79
2021/10/31 05:02:57;;;;;;;11.00;8.35;;;8.50;99.90;;;;;;5052258;28;20092;-79
2021/10/31 05:05:24;;;;;;;12.18;9.00;;;8.50;99.90;;;;;;5051644;28;20122;-80
2021/10/31 05:07:55;;;;;;;12.48;8.85;;;8.60;99.90;;;;;;5051825;28;20079;-80
2021/10/31 05:10:23;;;;;;;13.05;9.02;;;8.60;99.90;;;;;;5052073;28;20136;-80
2021/10/31 05:12:51;;;;;;;12.45;8.60;;;8.60;99.90;;;;;;5051907;28;20064;-80
2021/10/31 05:15:19;;;;;;;11.05;7.75;;;8.50;99.90;;;;;;5052143;28;20088;-81
2021/10/31 05:17:48;;;;;;;10.70;7.78;;;8.50;99.90;;;;;;5052040;28;20496;-79
2021/10/31 05:20:15;;;;;;;11.88;8.07;;;8.60;99.90;;;;;;5052425;28;20061;-81
2021/10/31 05:22:43;;;;;;;13.23;9.38;;;8.60;99.90;;;;;;5051512;28;20530;-78
2021/10/31 05:25:12;;;;;;;11.75;8.50;;;8.70;99.90;;;;;;5051905;28;20136;-80
2021/10/31 05:27:39;;;;;;;12.43;8.35;;;8.70;99.90;;;;;;5045871;28;20124;-76
2021/10/31 05:30:14;;;;;;;12.10;8.20;;;8.70;99.90;;;;;;5048004;28;20157;-78
2021/10/31 05:32:43;;;;;;;11.30;7.88;;;8.70;99.90;;;;;;5053439;28;20049;-76
2021/10/31 05:35:12;;;;;;;10.80;7.70;;;8.70;99.90;;;;;;5039649;28;20116;-76
2021/10/31 05:37:44;;;;;;;11.55;7.82;;;8.70;99.90;;;;;;5057317;28;20049;-77
2021/10/31 05:40:15;;;;;;;11.55;8.20;;;8.70;99.90;;;;;;5060874;28;20049;-74
2021/10/31 05:42:44;;;;;;;11.30;7.25;;;8.80;99.90;;;;;;5061342;28;20080;-78
2021/10/31 05:45:14;;;;;;;11.13;7.50;;;8.80;99.90;;;;;;5051676;28;20140;-76
2021/10/31 05:47:44;;;;;;;9.98;7.20;;;8.80;99.90;;;;;;5042770;28;20096;-81
2021/10/31 05:50:15;;;;;;;10.55;6.82;;;8.80;99.90;;;;;;5031798;28;20089;-77
2021/10/31 05:52:43;;;;;;;10.80;7.60;;;8.80;99.90;;;;;;5048336;28;20628;-77
2021/10/31 05:55:13;;;;;;;10.18;7.20;;;8.80;99.90;;;;;;5060480;28;20043;-78
2021/10/31 05:57:42;;;;;;;10.35;7.63;;;8.80;99.90;;;;;;5071363;28;20139;-81
2021/10/31 06:00:14;;;;;;;10.43;7.50;;;8.80;99.90;;;;;;5050686;28;20073;-78
2021/10/31 06:02:42;;;;;;;11.85;7.28;;;8.80;99.90;;;;;;5040809;28;20128;-79
2021/10/31 06:05:11;;;;;;;10.52;7.05;;;8.70;99.90;;;;;;5055669;28;20068;-77
2021/10/31 06:07:38;;;;;;;15.00;8.70;;;8.70;99.90;;;;;;5058956;28;20089;-78
2021/10/31 06:10:07;;;;;;;14.02;9.90;;;8.70;99.90;;;;;;5036926;28;20049;-78
2021/10/31 06:12:34;;;;;;;12.98;9.13;;;8.60;99.90;;;;;;5036148;28;20053;-79
2021/10/31 06:15:04;;;;;;;12.38;7.55;;;8.50;99.90;;;;;;5036107;28;20132;-78
2021/10/31 06:17:32;;;;;;;12.15;8.45;;;8.50;99.90;;;;;;5071041;28;20132;-79
2021/10/31 06:20:01;;;;;;;12.40;8.82;;;8.50;99.90;;;;;;5076379;28;20076;-78
2021/10/31 06:22:28;;;;;;;13.45;8.90;;;8.50;99.90;;;;;;5080527;28;20100;-80
2021/10/31 06:24:55;;;;;;;22.42;12.20;;;8.40;99.90;;;;;;5068721;28;20045;-78
2021/10/31 06:27:22;;;;;;;15.00;9.00;;;8.50;99.90;;;;;;5059699;28;20131;-77
2021/10/31 06:29:49;;;;;;;12.60;8.13;;;8.40;99.90;;;;;;5054985;28;20148;-79
2021/10/31 06:32:16;;;;;;;13.98;9.50;;;8.50;99.90;;;;;;5054857;28;20582;-81
2021/10/31 06:34:44;;;;;;;11.52;8.30;;;8.50;99.90;;;;;;5058956;28;20084;-80
2021/10/31 06:37:11;;;;;;;11.55;8.05;;;8.50;99.90;;;;;;5039181;28;20144;-78
2021/10/31 06:39:38;;;;;;;10.15;7.65;;;8.50;99.90;;;;;;5035249;28;20148;-80
2021/10/31 06:42:06;;;;;;;11.68;7.82;;;8.50;99.90;;;;;;5073994;28;20144;-77
2021/10/31 06:44:33;;;;;;;10.55;7.50;;;8.50;99.90;;;;;;5057261;28;20128;-79
2021/10/31 06:47:00;;;;;;;10.35;7.40;;;8.60;99.90;;;;;;5054838;28;20124;-79
2021/10/31 06:49:28;;;;;;;11.15;7.35;;;8.60;99.90;;;;;;5068067;28;20524;-80
2021/10/31 06:51:57;;;;;;;11.00;7.72;;;8.70;99.90;;;;;;5063272;28;20041;-81
2021/10/31 06:54:25;;;;;;;11.68;8.25;;;8.70;99.90;;;;;;5054980;28;20414;-81
2021/10/31 06:56:52;;;;;;;12.27;7.57;;;8.80;99.90;;;;;;5055190;28;20090;-79
2021/10/31 06:59:19;;;;;;;9.77;6.80;;;8.90;99.90;;;;;;5055325;28;20133;-78
2021/10/31 07:01:46;;;;;;;9.93;6.80;;;8.90;99.90;;;;;;5054691;28;20085;-79
2021/10/31 07:04:13;;;;;;;11.57;7.28;;;8.90;99.90;;;;;;5048985;28;20553;-81
2021/10/31 07:06:40;;;;;;;9.45;6.80;;;8.90;99.90;;;;;;5054993;28;20081;-79
2021/10/31 07:09:09;;;;;;;10.55;6.95;;;9.00;99.90;;;;;;5045555;28;20160;-80
2021/10/31 07:11:36;;;;;;;10.10;6.68;;;9.00;99.90;;;;;;5050698;28;20447;-79
2021/10/31 07:14:04;;;;;;;9.57;6.95;;;9.10;99.90;;;;;;5065119;28;20134;-77
2021/10/31 07:16:31;;;;;;;12.10;7.13;;;9.10;99.90;;;;;;5055361;28;20045;-78
2021/10/31 07:18:59;;;;;;;10.13;7.15;;;9.20;99.90;;;;;;5048909;28;20052;-80
2021/10/31 07:21:26;;;;;;;10.05;7.43;;;9.20;99.90;;;;;;5054587;28;20493;-80
2021/10/31 07:23:53;;;;;;;10.45;7.20;;;9.20;99.90;;;;;;5054724;28;20056;-80
2021/10/31 07:26:22;;;;;;;9.57;6.70;;;9.20;99.90;;;;;;5053557;28;20088;-80
2021/10/31 07:28:49;;;;;;;9.70;7.20;;;9.20;99.90;;;;;;5043262;28;20465;-78
2021/10/31 07:31:21;;;;;;;11.02;7.50;;;9.30;99.90;;;;;;5061971;28;20091;-78
2021/10/31 07:33:48;;;;;;;9.15;6.85;;;9.30;99.90;;;;;;5054061;28;20045;-79
2021/10/31 07:36:15;;;;;;;10.68;7.65;;;9.30;99.90;;;;;;5034111;28;20567;-80
2021/10/31 07:38:43;;;;;;;11.60;7.25;;;9.30;99.90;;;;;;5036339;28;20136;-80
2021/10/31 07:41:10;;;;;;;11.43;7.20;;;9.30;99.90;;;;;;5053547;28;20064;-78
2021/10/31 07:43:39;;;;;;;12.38;8.75;;;9.30;99.90;;;;;;5051509;28;20124;-79
2021/10/31 07:46:06;;;;;;;11.50;7.78;;;9.30;99.90;;;;;;5045494;28;20069;-81
2021/10/31 07:48:33;;;;;;;11.50;7.53;;;9.30;99.90;;;;;;5043184;28;20044;-79
2021/10/31 07:51:01;;;;;;;9.32;7.00;;;9.30;99.90;;;;;;5036254;28;20131;-80
2021/10/31 07:53:28;;;;;;;9.95;6.90;;;9.30;99.90;;;;;;5049547;28;20060;-81
2021/10/31 07:55:56;;;;;;;10.38;7.55;;;9.40;99.90;;;;;;5033277;28;20107;-78
2021/10/31 07:58:25;;;;;;;16.52;10.75;;;9.40;99.90;;;;;;5041397;28;20491;-81
2021/10/31 08:00:53;;;;;;;12.48;8.63;;;9.50;99.90;;;;;;5054144;28;20051;-79
2021/10/31 08:03:20;;;;;;;12.60;8.60;;;9.50;99.90;;;;;;5057125;28;20139;-81
2021/10/31 08:05:48;;;;;;;12.38;8.60;;;9.50;99.90;;;;;;5054584;28;20751;-80
2021/10/31 08:08:17;;;;;;;11.23;7.95;;;9.50;99.90;;;;;;5053980;28;20487;-81
2021/10/31 08:10:46;;;;;;;10.38;7.90;;;9.50;99.90;;;;;;5043621;28;20063;-78
2021/10/31 08:13:20;;;;;;;10.90;8.00;;;9.60;99.90;;;;;;5059203;28;20052;-78
2021/10/31 08:15:47;;;;;;;10.40;7.40;;;9.60;99.90;;;;;;5067065;28;20591;-81
2021/10/31 08:18:16;;;;;;;10.98;7.25;;;9.70;99.90;;;;;;5054751;28;20374;-80
2021/10/31 08:20:43;;;;;;;11.07;7.63;;;9.80;99.90;;;;;;5046551;28;20128;-78
2021/10/31 08:23:10;;;;;;;10.30;7.43;;;9.90;99.90;;;;;;5051527;28;20136;-78
2021/10/31 08:25:37;;;;;;;10.98;7.97;;;9.90;99.90;;;;;;5046311;28;20053;-79
2021/10/31 08:28:08;;;;;;;10.48;8.50;;;10.00;99.90;;;;;;5058687;28;20152;-80
2021/10/31 08:30:35;;;;;;;10.82;8.13;;;10.10;99.90;;;;;;5033520;28;20080;-80
2021/10/31 08:33:07;;;;;;;11.35;8.40;;;10.20;99.90;;;;;;5046392;28;20348;-77
2021/10/31 08:35:36;;;;;;;11.77;7.95;;;10.20;99.90;;;;;;5054097;28;20545;-80
2021/10/31 08:38:04;;;;;;;11.13;8.18;;;10.20;99.90;;;;;;5053953;28;20475;-79
2021/10/31 08:40:32;;;;;;;11.77;8.70;;;10.30;99.90;;;;;;5054483;28;20044;-79
2021/10/31 08:42:59;;;;;;;11.88;8.10;;;10.40;99.90;;;;;;5055347;28;20582;-78
2021/10/31 08:45:26;;;;;;;11.93;8.65;;;10.50;99.90;;;;;;5057675;28;20477;-79
2021/10/31 08:47:53;;;;;;;11.00;8.15;;;10.50;99.90;;;;;;5064904;28;20088;-77
2021/10/31 08:50:20;;;;;;;13.82;9.20;;;10.50;99.90;;;;;;5059726;28;20127;-78
2021/10/31 08:52:48;;;;;;;11.15;8.77;;;10.50;99.90;;;;;;5059584;28;20140;-79
2021/10/31 08:55:15;;;;;;;11.75;9.00;;;10.50;99.90;;;;;;5052611;28;20554;-78
2021/10/31 08:57:42;;;;;;;10.88;7.95;;;10.60;99.90;;;;;;5068137;28;20128;-79
2021/10/31 09:00:11;;;;;;;11.05;7.88;;;10.60;99.90;;;;;;5063624;28;20127;-79
2021/10/31 09:02:39;;;;;;;10.80;7.70;;;10.60;99.90;;;;;;5047296;28;20057;-83
2021/10/31 09:05:07;;;;;;;10.60;7.47;;;10.60;99.90;;;;;;5044249;28;20124;-80
2021/10/31 09:07:34;;;;;;;9.80;7.35;;;10.60;99.90;;;;;;5052086;28;20084;-80
2021/10/31 09:10:04;;;;;;;10.77;7.25;;;10.70;99.90;;;;;;5052354;28;20077;-80
2021/10/31 09:12:31;;;;;;;9.75;7.57;;;10.80;99.90;;;;;;5052492;28;20128;-80
2021/10/31 09:14:58;;;;;;;12.02;8.30;;;10.90;99.90;;;;;;5052212;28;20164;-80
2021/10/31 09:17:26;;;;;;;12.55;8.57;;;11.00;99.90;;;;;;5044031;28;20092;-80
2021/10/31 09:19:53;;;;;;;10.55;8.60;;;11.00;99.90;;;;;;5052387;28;20045;-80
2021/10/31 09:22:20;;;;;;;9.80;7.65;;;11.00;99.90;;;;;;5052274;28;20586;-78
2021/10/31 09:24:48;;;;;;;9.57;7.13;;;11.10;99.90;;;;;;5051525;28;20080;-80
2021/10/31 09:27:16;;;;;;;9.40;6.65;;;11.10;99.90;;;;;;5052578;28;20056;-78
2021/10/31 09:29:43;;;;;;;8.07;6.30;;;11.20;99.90;;;;;;5052288;28;20149;-80
2021/10/31 09:32:10;;;;;;;9.63;7.15;;;11.20;99.90;;;;;;5051560;28;20081;-77
2021/10/31 09:34:38;;;;;;;9.43;6.95;;;11.40;99.90;;;;;;5051708;28;20079;-77
2021/10/31 09:37:05;;;;;;;9.15;6.47;;;11.50;99.90;;;;;;5043934;28;20131;-79
2021/10/31 09:39:32;;;;;;;9.05;6.43;;;11.60;99.90;;;;;;5051717;28;20360;-79
2021/10/31 09:41:59;;;;;;;8.25;6.40;;;11.60;99.90;;;;;;5051887;28;20052;-77
2021/10/31 09:44:31;;;;;;;8.50;5.78;;;11.70;99.90;;;;;;5051490;28;20483;-77
2021/10/31 09:46:58;;;;;;;7.97;5.50;;;11.80;99.90;;;;;;5052019;28;20055;-78
2021/10/31 09:49:26;;;;;;;7.22;4.82;;;11.90;99.90;;;;;;5051839;28;20049;-76
2021/10/31 09:51:55;;;;;;;6.70;4.70;;;12.00;99.90;;;;;;5053629;28;20071;-88
2021/10/31 09:54:23;;;;;;;6.93;5.25;;;12.10;99.90;;;;;;5054480;28;20053;-85
2021/10/31 09:56:52;;;;;;;6.90;4.75;;;12.20;99.90;;;;;;5053481;28;20103;-85
2021/10/31 09:59:25;;;;;;;6.78;4.75;;;12.30;99.90;;;;;;5045005;28;20052;-80
2021/10/31 10:02:11;;;;;;;6.55;4.50;;;12.40;99.90;;;;;;5044472;28;20490;-80
2021/10/31 10:04:49;;;;;;;8.30;5.50;;;12.40;99.90;;;;;;5051592;28;20064;-80
2021/10/31 10:07:20;;;;;;;8.25;6.20;;;12.50;99.90;;;;;;5038363;28;20077;-80
2021/10/31 10:09:54;;;;;;;9.75;6.00;;;12.60;99.90;;;;;;5051450;28;20049;-81
2021/10/31 10:12:26;;;;;;;8.82;6.35;;;12.60;99.90;;;;;;5051767;28;20479;-82
2021/10/31 10:15:04;;;;;;;9.88;6.50;;;12.70;99.90;;;;;;5051996;28;20064;-81
2021/10/31 10:17:50;;;;;;;8.80;5.97;;;12.70;99.90;;;;;;5052172;28;20072;-78
2021/10/31 10:20:21;;;;;;;7.80;5.93;;;12.80;99.90;;;;;;5052008;28;20132;-81
2021/10/31 10:22:50;;;;;;;8.63;5.43;;;12.80;99.90;;;;;;5054293;28;20052;-80
2021/10/31 10:25:17;;;;;;;7.75;5.18;;;12.90;99.90;;;;;;5070294;28;20059;-80
2021/10/31 10:27:55;;;;;;;6.93;5.00;;;12.90;99.90;;;;;;5061006;28;20498;-81
2021/10/31 10:30:27;;;;;;;7.70;4.97;;;13.00;99.90;;;;;;5051495;28;20100;-78
2021/10/31 10:32:59;;;;;;;6.63;4.32;;;13.00;99.90;;;;;;5051554;28;20048;-78
2021/10/31 10:35:28;;;;;;;6.65;4.57;;;13.10;99.90;;;;;;5046853;28;20131;-80
2021/10/31 10:37:57;;;;;;;6.35;4.53;;;13.20;99.90;;;;;;5037381;28;20113;-80
2021/10/31 10:40:27;;;;;;;6.45;4.78;;;13.20;99.90;;;;;;5053736;28;20118;-82
2021/10/31 10:42:59;;;;;;;6.60;4.45;;;13.30;99.90;;;;;;5054557;28;20140;-80
2021/10/31 10:45:29;;;;;;;6.85;4.07;;;13.30;99.90;;;;;;5047704;28;20103;-82
2021/10/31 10:48:02;;;;;;;6.22;4.03;;;13.40;99.90;;;;;;5047953;28;20494;-81
2021/10/31 10:50:33;;;;;;;7.15;4.20;;;13.50;99.90;;;;;;5050926;28;20057;-83
2021/10/31 10:53:01;;;;;;;4.97;3.25;;;13.60;99.90;;;;;;5046002;28;20590;-83
2021/10/31 10:55:30;;;;;;;4.90;3.13;;;13.70;99.90;;;;;;5053190;28;20098;-82
2021/10/31 10:58:00;;;;;;;5.20;3.45;;;13.80;99.90;;;;;;5052075;28;20076;-80
2021/10/31 11:00:31;;;;;;;6.18;3.22;;;13.90;99.90;;;;;;5045981;28;20495;-79
2021/10/31 11:03:06;;;;;;;5.50;3.60;;;14.00;99.90;;;;;;5051683;28;20133;-79
2021/10/31 11:05:36;;;;;;;6.38;3.40;;;14.10;99.90;;;;;;5050627;28;20497;-79
2021/10/31 11:08:10;;;;;;;5.82;3.80;;;14.20;99.90;;;;;;5043848;28;20496;-78
2021/10/31 11:10:44;;;;;;;9.95;5.75;;;14.30;99.90;;;;;;5050904;28;20128;-80
2021/10/31 11:13:12;;;;;;;10.20;6.63;;;14.30;99.90;;;;;;5050886;28;20053;-82
2021/10/31 11:15:40;;;;;;;9.45;6.30;;;14.40;99.90;;;;;;5050681;28;20140;-79
2021/10/31 11:18:11;;;;;;;12.88;6.80;;;14.40;99.90;;;;;;5051497;28;20132;-79
2021/10/31 11:20:42;;;;;;;11.73;7.90;;;14.50;99.90;;;;;;5051813;28;20064;-81
2021/10/31 11:23:13;;;;;;;9.93;6.25;;;14.60;99.90;;;;;;5051135;28;20136;-80
2021/10/31 11:25:42;;;;;;;7.80;5.28;;;14.70;99.90;;;;;;5051197;28;20045;-80
2021/10/31 11:28:12;;;;;;;6.45;3.85;;;14.70;99.90;;;;;;5082904;28;20502;-80
2021/10/31 11:30:41;;;;;;;5.57;3.25;;;14.80;99.90;;;;;;5050769;28;20518;-80
2021/10/31 11:33:11;;;;;;;4.90;2.92;;;14.90;99.90;;;;;;5050920;28;20048;-79
2021/10/31 11:35:39;;;;;;;4.80;2.63;;;15.10;99.90;;;;;;5050931;28;20144;-77
2021/10/31 11:38:10;;;;;;;4.45;2.30;;;15.20;99.90;;;;;;5050487;28;20136;-80
2021/10/31 11:40:41;;;;;;;3.78;2.13;;;15.30;99.90;;;;;;5050258;28;20139;-79
2021/10/31 11:43:18;;;;;;;3.60;2.00;;;15.50;99.90;;;;;;5050057;28;20140;-80
2021/10/31 11:45:48;;;;;;;3.88;2.40;;;15.60;99.90;;;;;;5050486;28;20140;-79
2021/10/31 11:48:21;;;;;;;4.43;2.55;;;15.80;99.90;;;;;;5050213;28;20068;-80
2021/10/31 11:51:09;;;;;;;4.93;2.50;;;16.00;99.90;;;;;;5049632;28;20121;-81
2021/10/31 11:53:40;;;;;;;5.10;3.13;;;16.10;99.90;;;;;;5048390;28;20045;-79
2021/10/31 11:56:19;;;;;;;6.95;3.70;;;16.30;99.90;;;;;;5049736;28;20140;-81
2021/10/31 11:58:53;;;;;;;6.22;3.25;;;16.40;99.90;;;;;;5049963;28;20140;-80
2021/10/31 12:01:43;;;;;;;5.55;3.47;;;16.50;99.90;;;;;;5049684;28;20053;-80
2021/10/31 12:07:39;;;;;;;4.53;2.72;;;16.90;99.80;;;;;;5049123;28;20060;-81
2021/10/31 12:10:26;;;;;;;4.88;2.55;;;17.10;99.10;;;;;;5049919;28;20051;-79
2021/10/31 12:13:14;;;;;;;4.60;2.58;;;17.30;99.00;;;;;;5049465;28;20131;-78
2021/10/31 12:15:58;;;;;;;4.57;2.40;;;17.50;98.90;;;;;;5049712;28;20136;-79
2021/10/31 12:18:42;;;;;;;4.78;2.47;;;17.60;98.30;;;;;;5049379;28;20514;-80
2021/10/31 12:21:21;;;;;;;4.10;2.30;;;17.80;97.80;;;;;;5029749;28;20050;-78
2021/10/31 12:24:00;;;;;;;4.50;2.33;;;18.00;97.20;;;;;;5029293;28;20495;-77
2021/10/31 12:26:34;;;;;;;4.10;2.33;;;18.20;97.00;;;;;;5029223;28;20136;-78
2021/10/31 12:29:10;;;;;;;5.03;2.38;;;18.40;96.60;;;;;;5029199;28;20193;-78
2021/10/31 12:31:37;;;;;;;4.22;2.30;;;18.70;95.40;;;;;;5029219;28;20140;-78
2021/10/31 12:34:17;;;;;;;3.60;2.20;;;18.90;94.10;;;;;;5037498;28;20132;-79
2021/10/31 12:36:49;;;;;;;4.75;2.58;;;19.00;93.40;;;;;;5049313;28;20089;-79
2021/10/31 12:39:50;;;;;;;4.35;2.63;;;19.30;93.20;;;;;;5050144;28;20132;-78
2021/10/31 12:42:21;;;;;;;4.38;2.53;;;19.60;92.50;;;;;;5050276;28;20095;-78
2021/10/31 12:44:53;;;;;;;5.05;2.30;;;20.00;91.80;;;;;;5049447;28;20144;-78
2021/10/31 12:47:26;;;;;;;4.10;2.30;;;20.40;90.50;;;;;;5049099;28;20466;-79
2021/10/31 12:50:16;;;;;;;4.75;2.17;;;20.70;88.80;;;;;;5049269;28;20049;-79
2021/10/31 12:52:45;;;;;;;4.07;2.33;;;21.10;85.80;;;;;;5049028;28;20095;-82
2021/10/31 12:55:17;;;;;;;3.67;2.17;;;21.40;83.40;;;;;;5049107;28;20223;-77
2021/10/31 12:57:57;;;;;;;3.80;2.22;;;21.70;76.30;;;;;;5049875;28;20131;-80
2021/10/31 13:00:26;;;;;;;4.80;2.20;;;21.80;73.90;;;;;;5044751;28;20116;-78
2021/10/31 13:02:57;;;;;;;3.80;1.98;;;22.00;72.60;;;;;;5032427;28;20081;-77
2021/10/31 13:05:27;;;;;;;5.32;2.10;;;22.10;71.10;;;;;;5049368;28;20166;-78